Time;durP1;ratioP1;P1;durP2;ratioP2;P2;SDS_P1;SDS_P2;PMS_P1;PMS_P2;Temp;Humidity;BMP_temperature;BMP_pressure;BME280_temperature;BME280_humidity;BME280_pressure;Samples;Min_cycle;Max_cycle;Signal;HPM_P1;HPM_P2
2022/07/30 00:02:07;;;;;;;8.55;4.95;;;;;;;22.42;60.54;100884.05;1742501;80;21134;-47
2022/07/30 00:04:33;;;;;;;7.87;4.55;;;;;;;22.41;60.40;100882.41;1755870;80;21067;-49
2022/07/30 00:07:02;;;;;;;7.47;4.20;;;;;;;22.40;60.41;100879.39;1750187;81;21034;-47
2022/07/30 00:09:29;;;;;;;8.58;4.87;;;;;;;22.38;60.51;100877.41;1763272;80;21124;-48
2022/07/30 00:11:56;;;;;;;9.30;4.58;;;;;;;22.33;60.62;100874.98;1721471;83;21077;-47
2022/07/30 00:14:22;;;;;;;10.60;4.50;;;;;;;22.29;60.65;100881.73;1730000;82;21137;-47
2022/07/30 00:16:52;;;;;;;6.95;4.83;;;;;;;22.26;60.79;100881.58;1727331;82;21079;-50
2022/07/30 00:19:20;;;;;;;9.18;4.42;;;;;;;22.24;61.06;100884.93;1730287;82;21061;-47
2022/07/30 00:21:46;;;;;;;6.58;4.33;;;;;;;22.20;61.26;100879.64;1730326;81;21066;-47
2022/07/30 00:24:15;;;;;;;8.75;4.83;;;;;;;22.20;61.49;100886.34;1738387;80;21708;-47
2022/07/30 00:26:41;;;;;;;6.62;4.28;;;;;;;22.24;61.65;100886.27;1734472;82;21745;-47
2022/07/30 00:29:08;;;;;;;6.90;4.55;;;;;;;22.25;61.88;100889.29;1752139;81;21547;-47
2022/07/30 00:31:35;;;;;;;7.47;4.28;;;;;;;22.22;62.16;100882.95;1752069;81;21496;-47
2022/07/30 00:34:02;;;;;;;7.05;4.70;;;;;;;22.22;62.32;100884.30;1734308;80;21159;-47
2022/07/30 00:36:30;;;;;;;7.67;4.85;;;;;;;22.21;62.43;100883.99;1722899;81;21531;-47
2022/07/30 00:38:56;;;;;;;9.43;5.62;;;;;;;22.18;62.49;100887.05;1735314;80;21214;-47
2022/07/30 00:41:28;;;;;;;8.60;4.97;;;;;;;22.11;62.67;100886.95;1732380;81;21611;-47
2022/07/30 00:43:54;;;;;;;7.22;4.30;;;;;;;22.09;62.93;100883.64;1739051;80;21142;-47
2022/07/30 00:46:23;;;;;;;11.18;4.92;;;;;;;22.11;62.97;100882.08;1731865;80;21082;-47
2022/07/30 00:48:50;;;;;;;8.25;5.47;;;;;;;22.12;63.17;100882.42;1729512;81;21113;-48
2022/07/30 00:51:18;;;;;;;11.80;5.92;;;;;;;22.10;63.25;100873.22;1727144;82;21514;-48
2022/07/30 00:53:45;;;;;;;7.95;5.17;;;;;;;22.05;63.34;100877.80;1716278;81;21111;-47
2022/07/30 00:56:11;;;;;;;9.78;5.60;;;;;;;22.00;63.42;100868.14;1735764;81;21004;-47
2022/07/30 00:58:38;;;;;;;8.58;5.53;;;;;;;22.00;63.48;100864.64;1735623;81;21110;-48
2022/07/30 01:01:05;;;;;;;8.35;5.12;;;;;;;21.96;63.29;100860.17;1736618;82;21066;-47
2022/07/30 01:03:33;;;;;;;9.08;5.60;;;;;;;21.93;63.39;100859.20;1742382;81;21099;-47
2022/07/30 01:06:00;;;;;;;7.87;5.60;;;;;;;21.95;63.37;100860.36;1737080;82;21094;-47
2022/07/30 01:08:27;;;;;;;7.75;4.95;;;;;;;22.00;63.24;100855.27;1742064;81;21062;-47
2022/07/30 01:10:55;;;;;;;9.50;4.65;;;;;;;22.00;63.19;100853.41;1729188;81;21037;-46
2022/07/30 01:13:21;;;;;;;7.40;4.85;;;;;;;21.97;63.37;100847.11;1729297;81;21061;-46
2022/07/30 01:15:48;;;;;;;8.25;4.90;;;;;;;21.96;63.50;100849.97;1756474;81;21127;-47
2022/07/30 01:18:15;;;;;;;7.87;4.60;;;;;;;21.93;63.71;100849.00;1756049;81;21334;-47
2022/07/30 01:21:03;;;;;;;7.22;5.20;;;;;;;21.89;63.85;100846.69;1720209;82;21667;-46
2022/07/30 01:23:35;;;;;;;9.63;5.30;;;;;;;21.86;63.87;100844.38;1724069;81;21045;-47
2022/07/30 01:26:07;;;;;;;7.95;4.95;;;;;;;21.83;63.83;100843.41;1735383;81;21063;-47
2022/07/30 01:28:37;;;;;;;9.75;5.17;;;;;;;21.84;63.91;100841.58;1732040;81;21252;-47
2022/07/30 01:31:07;;;;;;;8.48;4.75;;;;;;;21.83;63.95;100842.58;1735825;81;21046;-47
2022/07/30 01:33:41;;;;;;;8.80;5.50;;;;;;;21.81;64.09;100845.96;1738830;80;21100;-47
2022/07/30 01:36:10;;;;;;;8.48;5.03;;;;;;;21.78;64.29;100848.48;1730276;82;21067;-47
2022/07/30 01:38:38;;;;;;;8.95;5.30;;;;;;;21.75;64.41;100840.00;1751367;80;21546;-47
2022/07/30 01:41:06;;;;;;;7.65;5.03;;;;;;;21.71;64.56;100844.38;1746748;82;22046;-47
2022/07/30 01:43:34;;;;;;;7.90;5.15;;;;;;;21.71;64.88;100843.55;1730654;81;21043;-47
2022/07/30 01:46:02;;;;;;;7.25;5.70;;;;;;;21.73;64.89;100854.91;1751625;81;21063;-47
2022/07/30 01:48:31;;;;;;;8.90;6.28;;;;;;;21.74;65.03;100846.36;1751820;80;21474;-47
2022/07/30 01:50:59;;;;;;;8.70;6.15;;;;;;;21.72;65.17;100845.23;1729580;81;21102;-47
2022/07/30 01:53:29;;;;;;;7.92;5.45;;;;;;;21.70;65.30;100844.07;1747981;81;21403;-47
2022/07/30 01:55:56;;;;;;;8.28;5.22;;;;;;;21.70;65.34;100837.37;1758608;80;21008;-47
2022/07/30 01:58:27;;;;;;;8.55;5.37;;;;;;;21.68;65.42;100832.69;1742415;81;21185;-47
2022/07/30 02:00:59;;;;;;;10.38;5.80;;;;;;;21.68;65.32;100836.70;1745016;80;21041;-47
2022/07/30 02:03:26;;;;;;;8.50;5.35;;;;;;;21.72;65.35;100835.86;1742359;80;21025;-47
2022/07/30 02:05:58;;;;;;;7.47;5.22;;;;;;;21.74;65.50;100836.98;1725823;81;21780;-47
2022/07/30 02:08:57;;;;;;;7.60;5.45;;;;;;;21.79;65.57;100827.91;1718201;83;21065;-47
2022/07/30 02:14:21;;;;;;;10.40;6.15;;;;;;;21.78;65.71;100836.95;1737869;80;21514;-47
2022/07/30 02:16:55;;;;;;;10.58;5.65;;;;;;;21.74;65.94;100835.16;1739827;81;21038;-47
2022/07/30 02:19:23;;;;;;;7.95;5.67;;;;;;;21.71;66.05;100837.68;1740830;80;21131;-47
2022/07/30 02:21:54;;;;;;;11.63;5.10;;;;;;;21.69;65.85;100833.02;1739542;81;21137;-47
2022/07/30 02:24:23;;;;;;;11.05;5.67;;;;;;;21.67;65.69;100828.37;1743270;80;21161;-47
2022/07/30 02:26:57;;;;;;;9.60;5.50;;;;;;;21.63;65.69;100825.72;1741070;81;21014;-47
2022/07/30 02:29:23;;;;;;;11.75;6.65;;;;;;;21.61;65.75;100838.47;1731295;80;21029;-47
2022/07/30 02:31:52;;;;;;;7.50;5.85;;;;;;;21.60;65.57;100836.83;1724289;81;21113;-47
2022/07/30 02:34:20;;;;;;;8.28;6.15;;;;;;;21.57;65.54;100838.53;1731408;80;21573;-47
2022/07/30 02:36:47;;;;;;;9.15;5.85;;;;;;;21.53;65.42;100839.89;1720400;83;21127;-47
2022/07/30 02:39:15;;;;;;;8.53;6.08;;;;;;;21.51;65.51;100844.61;1741434;80;21664;-48
2022/07/30 02:41:42;;;;;;;7.33;5.17;;;;;;;21.55;65.47;100847.23;1719085;82;21042;-47
2022/07/30 02:44:10;;;;;;;9.80;7.03;;;;;;;21.56;65.55;100847.56;1722331;81;21066;-47
2022/07/30 02:46:38;;;;;;;7.97;5.72;;;;;;;21.55;65.67;100849.08;1727200;82;21075;-47
2022/07/30 02:49:08;;;;;;;9.13;6.70;;;;;;;21.51;65.86;100855.31;1735371;80;21714;-47
2022/07/30 02:51:35;;;;;;;8.80;6.10;;;;;;;21.49;65.91;100852.00;1736177;81;21561;-50
2022/07/30 02:54:02;;;;;;;11.00;6.33;;;;;;;21.47;65.94;100853.52;1739818;80;21509;-48
2022/07/30 02:56:29;;;;;;;8.18;5.37;;;;;;;21.45;65.90;100850.17;1756086;80;21135;-48
2022/07/30 02:58:56;;;;;;;7.53;5.92;;;;;;;21.50;65.96;100850.97;1750664;80;21082;-48
2022/07/30 03:01:25;;;;;;;7.35;5.58;;;;;;;21.55;66.12;100859.28;1738095;80;21078;-47
2022/07/30 03:03:51;;;;;;;8.30;5.67;;;;;;;21.59;66.27;100852.56;1746123;81;21017;-47
2022/07/30 03:06:22;;;;;;;8.15;5.20;;;;;;;21.64;66.32;100860.87;1742145;81;21565;-48
2022/07/30 03:08:49;;;;;;;8.00;5.83;;;;;;;21.68;66.17;100858.65;1741231;81;22031;-48
2022/07/30 03:11:16;;;;;;;9.03;5.62;;;;;;;21.70;66.17;100859.29;1742994;81;21101;-49
2022/07/30 03:13:42;;;;;;;7.60;5.17;;;;;;;21.69;66.33;100861.14;1698765;81;21082;-47
2022/07/30 03:16:09;;;;;;;6.37;4.87;;;;;;;21.70;66.36;100858.80;1735435;81;21074;-48
2022/07/30 03:18:37;;;;;;;9.43;5.58;;;;;;;21.76;66.52;100858.56;1744104;80;21062;-48
2022/07/30 03:21:07;;;;;;;9.28;5.85;;;;;;;21.84;66.73;100857.13;1739400;81;21106;-47
2022/07/30 03:23:35;;;;;;;10.25;5.40;;;;;;;21.92;66.79;100860.20;1737598;81;22525;-47
2022/07/30 03:26:05;;;;;;;7.42;4.85;;;;;;;21.97;66.61;100864.52;1737493;81;21019;-48
2022/07/30 03:28:36;;;;;;;6.70;4.95;;;;;;;22.02;66.19;100865.28;1744371;80;21098;-47
2022/07/30 03:31:03;;;;;;;10.98;4.80;;;;;;;22.05;65.60;100867.59;1741098;81;21082;-48
2022/07/30 03:33:32;;;;;;;6.50;4.65;;;;;;;22.09;65.45;100864.88;1739705;80;22369;-48
2022/07/30 03:35:59;;;;;;;9.60;5.28;;;;;;;22.17;65.14;100872.78;1737293;81;21517;-49
2022/07/30 03:38:26;;;;;;;6.62;4.75;;;;;;;22.25;65.01;100867.84;1745887;81;21058;-48
2022/07/30 03:40:54;;;;;;;7.50;5.15;;;;;;;22.30;64.98;100873.50;1739869;81;21023;-47
2022/07/30 03:43:21;;;;;;;7.53;4.85;;;;;;;22.33;65.13;100866.95;1746705;80;21498;-48
2022/07/30 03:45:47;;;;;;;6.70;4.30;;;;;;;22.37;65.01;100865.53;1745964;80;22141;-48
2022/07/30 03:48:16;;;;;;;8.63;4.62;;;;;;;22.39;64.74;100871.05;1740215;81;21050;-47
2022/07/30 03:50:44;;;;;;;7.78;4.55;;;;;;;22.41;64.52;100873.02;1712012;81;21131;-47
2022/07/30 03:53:12;;;;;;;6.85;4.15;;;;;;;22.47;64.34;100866.58;1751227;80;21073;-48
2022/07/30 03:55:43;;;;;;;8.18;5.22;;;;;;;22.54;64.02;100866.13;1684081;81;21100;-48
2022/07/30 03:58:11;;;;;;;6.62;4.45;;;;;;;22.62;63.80;100862.00;1724446;81;22648;-50
2022/07/30 04:00:39;;;;;;;10.45;4.70;;;;;;;22.67;63.73;100862.25;1758481;80;21539;-47
2022/07/30 04:03:06;;;;;;;6.72;4.65;;;;;;;22.71;63.93;100865.38;1747246;81;21082;-48
2022/07/30 04:05:35;;;;;;;7.92;5.40;;;;;;;22.71;63.84;100868.91;1752009;80;21470;-48
2022/07/30 04:08:04;;;;;;;7.78;5.90;;;;;;;22.71;63.64;100864.03;1745830;80;20989;-47
2022/07/30 04:10:32;;;;;;;7.45;5.40;;;;;;;22.72;63.86;100862.51;1734214;80;21741;-48
2022/07/30 04:12:59;;;;;;;8.00;5.53;;;;;;;22.79;63.87;100859.89;1732459;81;21096;-47
2022/07/30 04:15:28;;;;;;;9.05;5.75;;;;;;;22.79;63.86;100859.38;1733352;82;21087;-47
2022/07/30 04:17:59;;;;;;;7.33;5.80;;;;;;;22.79;64.22;100865.26;1736667;80;21089;-48
2022/07/30 04:20:33;;;;;;;9.00;5.90;;;;;;;22.80;64.41;100865.06;1734258;81;21117;-48
2022/07/30 04:23:00;;;;;;;7.53;5.45;;;;;;;22.80;64.55;100865.06;1730325;81;21140;-48
2022/07/30 04:25:27;;;;;;;12.50;5.87;;;;;;;22.82;64.41;100871.59;1731922;80;21081;-47
2022/07/30 04:27:55;;;;;;;7.72;5.08;;;;;;;22.82;63.98;100862.19;1730516;81;21053;-48
2022/07/30 04:30:22;;;;;;;8.15;5.60;;;;;;;22.87;63.89;100858.94;1779043;80;21096;-48
2022/07/30 04:32:49;;;;;;;7.67;5.20;;;;;;;22.92;63.86;100864.04;1775683;80;21020;-48
2022/07/30 04:35:34;;;;;;;10.70;5.00;;;;;;;22.94;63.73;100858.48;1723630;81;21142;-48
2022/07/30 04:38:09;;;;;;;7.95;4.85;;;;;;;22.94;63.46;100857.14;1740050;81;21042;-48
2022/07/30 04:40:36;;;;;;;7.30;4.50;;;;;;;22.95;63.69;100860.16;1740573;80;21041;-48
2022/07/30 04:43:04;;;;;;;7.35;4.80;;;;;;;22.98;63.53;100851.70;1739492;81;21082;-48
2022/07/30 04:45:34;;;;;;;7.20;4.65;;;;;;;22.99;63.20;100848.00;1736735;81;21030;-47
2022/07/30 04:48:02;;;;;;;6.83;4.67;;;;;;;22.99;62.80;100848.82;1734723;81;21150;-48
2022/07/30 04:50:50;;;;;;;8.40;4.97;;;;;;;23.07;62.55;100851.10;1740547;81;21058;-47
2022/07/30 04:53:18;;;;;;;7.65;4.33;;;;;;;23.10;62.35;100851.54;1747698;80;21086;-48
2022/07/30 04:55:50;;;;;;;8.03;5.22;;;;;;;23.10;62.11;100843.48;1746247;81;21036;-48
2022/07/30 04:58:19;;;;;;;9.03;5.25;;;;;;;23.12;61.41;100845.45;1749913;80;21105;-48
2022/07/30 05:00:46;;;;;;;9.65;5.42;;;;;;;23.13;60.89;100847.13;1753191;80;21136;-48
2022/07/30 05:03:14;;;;;;;8.85;5.10;;;;;;;23.10;60.43;100843.48;1747572;81;21090;-48
2022/07/30 05:05:43;;;;;;;8.58;4.70;;;;;;;23.10;60.23;100846.66;1735831;80;21433;-48
2022/07/30 05:08:09;;;;;;;9.13;4.60;;;;;;;23.09;59.95;100849.87;1751426;81;21082;-48
2022/07/30 05:10:37;;;;;;;6.65;4.62;;;;;;;23.11;60.43;100845.12;1760643;80;21492;-50
2022/07/30 05:13:11;;;;;;;8.18;4.20;;;;;;;23.18;60.43;100842.50;1745686;81;21133;-48
2022/07/30 05:15:37;;;;;;;6.83;4.42;;;;;;;23.29;60.24;100849.20;1767658;80;21037;-47
2022/07/30 05:18:07;;;;;;;9.65;3.92;;;;;;;23.35;59.72;100851.09;1703423;81;21101;-48
2022/07/30 05:20:37;;;;;;;9.43;4.83;;;;;;;23.40;59.67;100851.33;1747742;81;21043;-48
2022/07/30 05:23:14;;;;;;;7.83;4.85;;;;;;;23.43;59.24;100858.17;1736975;81;21026;-48
2022/07/30 05:25:44;;;;;;;8.13;4.67;;;;;;;23.46;59.10;100853.77;1750232;80;21343;-48
2022/07/30 05:28:16;;;;;;;8.43;4.37;;;;;;;23.52;58.94;100847.09;1767370;80;21345;-48
2022/07/30 05:30:42;;;;;;;6.87;4.30;;;;;;;23.59;59.10;100854.34;1743415;81;21669;-48
2022/07/30 05:33:10;;;;;;;9.00;4.50;;;;;;;23.64;59.31;100852.73;1716106;81;21498;-48
2022/07/30 05:35:37;;;;;;;7.62;4.95;;;;;;;23.71;59.18;100854.13;1748200;80;22276;-48
2022/07/30 05:38:05;;;;;;;7.10;4.60;;;;;;;23.75;59.31;100855.38;1754440;80;21230;-48
2022/07/30 05:40:34;;;;;;;5.92;4.33;;;;;;;23.84;59.08;100854.23;1766190;80;21081;-48
2022/07/30 05:43:09;;;;;;;14.10;4.92;;;;;;;23.97;58.81;100858.81;1748055;80;21043;-48
2022/07/30 05:45:37;;;;;;;9.13;5.17;;;;;;;24.07;58.85;100857.96;1775027;80;21038;-48
2022/07/30 05:48:05;;;;;;;10.00;5.47;;;;;;;24.10;58.61;100861.56;1755977;81;21109;-48
2022/07/30 05:50:33;;;;;;;7.53;4.60;;;;;;;24.16;57.44;100867.17;1751163;81;21588;-48
2022/07/30 05:53:00;;;;;;;6.70;4.62;;;;;;;24.24;57.17;100861.13;1752531;81;21549;-48
2022/07/30 05:55:45;;;;;;;8.68;5.17;;;;;;;24.36;57.06;100861.38;1752779;80;21410;-48
2022/07/30 05:58:23;;;;;;;7.70;4.40;;;;;;;24.50;56.29;100868.95;1719969;81;21053;-49
2022/07/30 06:00:50;;;;;;;10.15;4.70;;;;;;;24.57;56.05;100859.06;1752014;81;21055;-48
2022/07/30 06:03:18;;;;;;;9.10;4.72;;;;;;;24.62;55.70;100858.45;1727675;81;21139;-48
2022/07/30 06:05:51;;;;;;;7.05;3.90;;;;;;;24.62;55.05;100858.45;1739890;81;21063;-48
2022/07/30 06:08:17;;;;;;;5.90;4.10;;;;;;;24.61;54.92;100862.16;1738892;81;21073;-48
2022/07/30 06:10:46;;;;;;;6.47;4.05;;;;;;;24.59;55.09;100856.98;1748601;80;21004;-48
2022/07/30 06:13:13;;;;;;;8.10;3.98;;;;;;;24.61;54.79;100850.91;1749657;81;21106;-47
2022/07/30 06:15:41;;;;;;;7.53;4.70;;;;;;;24.61;54.52;100848.22;1747232;81;21120;-48
2022/07/30 06:18:10;;;;;;;7.35;4.30;;;;;;;24.65;54.44;100852.14;1750561;80;21047;-48
2022/07/30 06:20:45;;;;;;;9.98;4.40;;;;;;;24.67;54.33;100853.28;1746380;80;21042;-48
2022/07/30 06:23:15;;;;;;;7.17;3.45;;;;;;;24.68;54.69;100850.92;1742259;81;21062;-48
2022/07/30 06:26:01;;;;;;;7.55;3.65;;;;;;;24.70;54.81;100852.06;1739174;81;21208;-48
2022/07/30 06:28:30;;;;;;;5.80;3.65;;;;;;;24.75;54.64;100841.52;1733453;81;21493;-48
2022/07/30 06:30:56;;;;;;;6.80;3.58;;;;;;;24.82;54.34;100839.12;1754947;80;21632;-48
2022/07/30 06:33:25;;;;;;;5.87;3.67;;;;;;;24.92;54.24;100844.10;1743563;81;20979;-48
2022/07/30 06:35:51;;;;;;;8.33;4.30;;;;;;;25.02;53.86;100840.48;1750809;81;21152;-48
2022/07/30 06:38:21;;;;;;;6.35;4.10;;;;;;;25.11;53.65;100834.36;1753017;81;21069;-48
2022/07/30 06:40:51;;;;;;;8.65;4.05;;;;;;;25.20;53.43;100834.97;1748887;80;22450;-48
2022/07/30 06:43:20;;;;;;;8.35;3.70;;;;;;;25.26;53.59;100832.83;1742617;81;21121;-49
2022/07/30 06:45:50;;;;;;;6.28;3.60;;;;;;;25.33;52.01;100828.78;1715929;81;21053;-49
2022/07/30 06:48:20;;;;;;;6.80;3.80;;;;;;;25.40;51.65;100833.13;1726684;81;21152;-48
2022/07/30 06:50:48;;;;;;;7.10;3.22;;;;;;;25.47;52.39;100836.31;1721395;81;22272;-48
2022/07/30 06:53:16;;;;;;;6.45;3.40;;;;;;;25.51;52.52;100833.52;1717658;83;21739;-48
2022/07/30 06:55:44;;;;;;;6.25;3.58;;;;;;;25.53;52.65;100831.44;1686706;83;21100;-48
2022/07/30 06:58:11;;;;;;;5.60;3.33;;;;;;;25.54;52.61;100831.76;1742413;81;21581;-48
2022/07/30 07:00:57;;;;;;;6.20;3.58;;;;;;;25.56;51.83;100835.06;1687322;83;21054;-48
2022/07/30 07:03:25;;;;;;;6.00;3.22;;;;;;;25.54;51.55;100832.58;1674025;84;21108;-48
2022/07/30 07:05:53;;;;;;;5.42;3.17;;;;;;;25.52;51.28;100829.77;1704991;81;20979;-48
2022/07/30 07:08:20;;;;;;;6.47;3.30;;;;;;;25.51;51.27;100827.61;1730137;82;21064;-48
2022/07/30 07:10:49;;;;;;;7.80;3.30;;;;;;;25.53;51.75;100836.30;1712537;82;21092;-47
2022/07/30 07:13:24;;;;;;;6.55;3.50;;;;;;;25.53;52.10;100828.22;1749849;80;23055;-47
2022/07/30 07:15:51;;;;;;;6.42;3.20;;;;;;;25.55;51.29;100832.90;1740599;81;21042;-47
2022/07/30 07:18:21;;;;;;;8.20;3.55;;;;;;;25.53;50.73;100836.83;1745779;81;21092;-47
2022/07/30 07:20:51;;;;;;;5.83;3.30;;;;;;;25.52;50.69;100834.66;1741595;80;21547;-47
2022/07/30 07:23:17;;;;;;;5.17;2.80;;;;;;;25.52;49.99;100827.08;1741717;81;21491;-47
2022/07/30 07:25:44;;;;;;;6.65;3.55;;;;;;;25.52;49.99;100830.63;1743233;81;21119;-47
2022/07/30 07:28:11;;;;;;;6.10;3.45;;;;;;;25.54;49.69;100826.37;1743441;81;21046;-47
2022/07/30 07:30:38;;;;;;;6.97;3.42;;;;;;;25.55;49.90;100819.42;1747579;80;21120;-47
2022/07/30 07:33:05;;;;;;;7.92;3.33;;;;;;;25.60;50.24;100822.81;1729923;81;21679;-47
2022/07/30 07:35:33;;;;;;;6.80;3.27;;;;;;;25.65;50.68;100823.00;1743742;80;21106;-50
2022/07/30 07:38:01;;;;;;;7.53;3.22;;;;;;;25.69;50.71;100816.16;1739098;81;21070;-47
2022/07/30 07:40:29;;;;;;;6.30;3.05;;;;;;;25.74;50.02;100819.58;1737347;80;21058;-48
2022/07/30 07:42:56;;;;;;;5.97;2.83;;;;;;;25.77;50.29;100811.89;1749640;81;21315;-47
2022/07/30 07:45:24;;;;;;;5.75;3.12;;;;;;;25.83;50.22;100818.28;1743115;80;21031;-47
2022/07/30 07:48:00;;;;;;;7.10;3.30;;;;;;;25.89;49.50;100816.09;1740935;81;21029;-47
2022/07/30 07:50:31;;;;;;;7.22;2.80;;;;;;;25.97;49.18;100812.87;1721685;81;21544;-47
2022/07/30 07:52:58;;;;;;;5.58;2.72;;;;;;;25.99;48.79;100812.98;1706786;81;22227;-47
2022/07/30 07:55:26;;;;;;;6.53;3.20;;;;;;;26.03;48.08;100815.54;1740510;80;22317;-48
2022/07/30 07:57:52;;;;;;;8.98;3.00;;;;;;;26.08;48.00;100813.02;1740122;82;21607;-48
2022/07/30 08:00:19;;;;;;;7.75;2.92;;;;;;;26.13;48.08;100810.50;1739873;81;21119;-47
2022/07/30 08:02:47;;;;;;;5.28;2.77;;;;;;;26.19;47.71;100810.69;1742992;81;21047;-48
2022/07/30 08:05:15;;;;;;;7.95;2.65;;;;;;;26.29;47.21;100812.39;1741119;80;21096;-48
2022/07/30 08:08:04;;;;;;;8.15;3.20;;;;;;;26.38;47.12;100809.75;1743924;80;21137;-48
2022/07/30 08:10:42;;;;;;;7.53;2.70;;;;;;;26.47;47.01;100806.27;1743041;80;21034;-48
2022/07/30 08:13:27;;;;;;;11.50;3.25;;;;;;;26.56;46.90;100804.13;1634023;86;21608;-48
2022/07/30 08:15:55;;;;;;;6.30;3.08;;;;;;;26.67;46.25;100802.11;1707007;80;21094;-48
2022/07/30 08:18:30;;;;;;;5.13;2.40;;;;;;;26.76;46.07;100801.31;1729426;82;20995;-47
2022/07/30 08:21:03;;;;;;;6.67;2.77;;;;;;;26.84;45.94;100797.80;1735165;81;21098;-47
2022/07/30 08:23:32;;;;;;;5.45;2.55;;;;;;;26.91;44.49;100795.05;1733863;80;21084;-47
2022/07/30 08:25:59;;;;;;;5.72;2.77;;;;;;;26.99;44.53;100792.07;1738730;80;21626;-48
2022/07/30 08:28:26;;;;;;;6.37;3.20;;;;;;;27.05;44.45;100785.79;1743064;82;21046;-48
2022/07/30 08:30:52;;;;;;;10.40;3.60;;;;;;;27.13;43.93;100784.66;1749012;80;21010;-49
2022/07/30 08:33:20;;;;;;;5.60;3.10;;;;;;;27.20;43.87;100785.45;1737618;82;22408;-47
2022/07/30 08:35:48;;;;;;;8.98;3.33;;;;;;;27.27;44.11;100784.02;1741147;80;21074;-48
2022/07/30 08:38:17;;;;;;;5.92;2.98;;;;;;;27.34;43.78;100784.80;1735601;82;21087;-48
2022/07/30 08:40:45;;;;;;;7.83;3.15;;;;;;;27.41;43.34;100777.98;1742486;80;21009;-49
2022/07/30 08:43:12;;;;;;;6.03;3.10;;;;;;;27.50;43.14;100777.14;1733568;81;21023;-48
2022/07/30 08:45:39;;;;;;;5.28;2.67;;;;;;;27.59;43.07;100775.80;1742284;80;21185;-48
2022/07/30 08:48:10;;;;;;;5.37;2.65;;;;;;;27.67;43.46;100768.75;1731870;82;21019;-48
2022/07/30 08:50:38;;;;;;;10.20;3.33;;;;;;;27.76;43.48;100774.66;1736788;80;21557;-48
2022/07/30 08:53:07;;;;;;;7.35;3.30;;;;;;;27.82;43.07;100772.91;1711382;80;21083;-48
2022/07/30 08:55:36;;;;;;;5.30;2.85;;;;;;;27.88;42.42;100766.07;1736540;81;21115;-48
2022/07/30 08:58:05;;;;;;;6.00;2.77;;;;;;;27.94;42.69;100757.08;1736887;81;21102;-47
2022/07/30 09:00:32;;;;;;;7.47;3.62;;;;;;;28.01;42.48;100761.05;1738354;80;21556;-48
2022/07/30 09:03:00;;;;;;;6.03;3.75;;;;;;;28.09;42.74;100758.53;1737102;81;21173;-48
2022/07/30 09:05:28;;;;;;;7.15;3.77;;;;;;;28.15;42.35;100756.27;1738152;82;21015;-48
2022/07/30 09:07:55;;;;;;;6.05;3.17;;;;;;;28.18;41.82;100751.75;1734525;82;21632;-48
2022/07/30 09:10:24;;;;;;;5.83;3.12;;;;;;;28.25;42.04;100757.88;1732816;80;21055;-48
2022/07/30 09:12:52;;;;;;;7.37;2.92;;;;;;;28.28;42.09;100758.78;1733402;80;21008;-48
2022/07/30 09:15:20;;;;;;;6.78;2.90;;;;;;;28.34;41.63;100751.59;1736326;81;21011;-49
2022/07/30 09:18:01;;;;;;;6.87;3.10;;;;;;;28.42;42.04;100750.45;1739966;81;21093;-48
2022/07/30 09:20:35;;;;;;;6.72;2.87;;;;;;;28.44;42.00;100738.86;1732121;80;21435;-48
2022/07/30 09:23:05;;;;;;;6.05;3.02;;;;;;;28.46;41.63;100736.23;1735433;81;21138;-48
2022/07/30 09:25:51;;;;;;;11.65;3.05;;;;;;;28.45;41.63;100738.63;1736025;82;21015;-48
2022/07/30 09:28:36;;;;;;;6.50;2.75;;;;;;;28.48;41.01;100740.03;1735345;81;21099;-48
2022/07/30 09:31:17;;;;;;;6.90;2.67;;;;;;;28.53;41.03;100735.59;1740324;80;21770;-48
2022/07/30 09:33:48;;;;;;;6.05;3.50;;;;;;;28.59;41.53;100738.45;1693916;82;21112;-49
2022/07/30 09:36:33;;;;;;;6.20;3.05;;;;;;;28.67;42.53;100738.10;1744271;80;21966;-49
2022/07/30 09:39:06;;;;;;;6.90;3.00;;;;;;;28.79;41.28;100732.16;1737715;82;21109;-49
2022/07/30 09:41:40;;;;;;;4.80;2.97;;;;;;;28.93;40.99;100737.33;1703517;82;21455;-49
2022/07/30 09:44:12;;;;;;;5.45;2.85;;;;;;;29.06;41.03;100733.84;1740265;80;21572;-49
2022/07/30 09:46:50;;;;;;;6.58;3.00;;;;;;;29.18;40.53;100732.50;1671533;82;21043;-49
2022/07/30 09:49:24;;;;;;;6.37;3.00;;;;;;;29.33;40.83;100736.06;1738068;81;21133;-49
2022/07/30 09:51:51;;;;;;;8.13;3.30;;;;;;;29.45;39.87;100732.81;1749984;80;21059;-49
2022/07/30 09:54:18;;;;;;;5.47;3.20;;;;;;;29.53;39.57;100733.49;1741541;82;21494;-49
2022/07/30 09:56:45;;;;;;;7.12;3.12;;;;;;;29.58;39.12;100730.88;1747077;80;21001;-49
2022/07/30 09:59:26;;;;;;;4.78;3.02;;;;;;;29.67;39.06;100732.67;1736922;80;21061;-50
2022/07/30 10:01:54;;;;;;;7.30;3.65;;;;;;;29.73;39.51;100731.17;1710197;81;21536;-49
2022/07/30 10:04:39;;;;;;;5.05;3.10;;;;;;;29.82;40.19;100729.77;1730176;82;21137;-52
2022/07/30 10:07:17;;;;;;;6.10;3.50;;;;;;;29.94;39.39;100727.00;1713189;82;21361;-49
2022/07/30 10:09:44;;;;;;;10.55;3.60;;;;;;;30.01;39.14;100728.20;1724225;81;21073;-49
2022/07/30 10:12:13;;;;;;;6.22;2.98;;;;;;;30.07;38.82;100720.42;1746569;80;21015;-49
2022/07/30 10:14:45;;;;;;;6.78;3.27;;;;;;;30.11;38.30;100720.24;1734847;81;21178;-49
2022/07/30 10:17:14;;;;;;;6.55;3.30;;;;;;;30.13;38.11;100720.81;1744354;80;21109;-49
2022/07/30 10:19:44;;;;;;;6.05;3.22;;;;;;;30.13;37.41;100722.17;1741412;80;21086;-48
2022/07/30 10:22:16;;;;;;;5.85;3.35;;;;;;;30.13;37.61;100715.39;1720671;81;21042;-50
2022/07/30 10:25:03;;;;;;;9.33;3.50;;;;;;;30.12;37.69;100719.16;1736883;81;21102;-49
2022/07/30 10:27:48;;;;;;;6.47;3.50;;;;;;;30.13;37.49;100718.10;1736260;81;21237;-49
2022/07/30 10:30:20;;;;;;;6.95;3.20;;;;;;;30.14;37.67;100721.12;1730093;81;21051;-49
2022/07/30 10:32:46;;;;;;;8.43;3.45;;;;;;;30.15;37.77;100723.28;1737219;81;20992;-50
2022/07/30 10:35:14;;;;;;;8.78;3.47;;;;;;;30.12;37.87;100725.94;1737338;81;21062;-48
2022/07/30 10:37:46;;;;;;;6.12;3.60;;;;;;;30.12;38.36;100730.55;1745685;80;21050;-49
2022/07/30 10:40:22;;;;;;;5.37;3.02;;;;;;;30.10;38.30;100729.44;1708557;81;21348;-49
2022/07/30 10:43:19;;;;;;;;;;;;;;;30.07;38.68;100724.50;1735619;81;21050;-50
2022/07/30 10:46:02;;;;;;;5.75;3.33;;;;;;;30.02;38.93;100725.77;1738478;81;20152;-46
2022/07/30 10:48:30;;;;;;;5.03;3.37;;;;;;;29.97;38.96;100732.45;1734174;81;21100;-49
2022/07/30 10:52:57;;;;;;;5.30;2.75;;;;;;;30.01;39.50;100721.42;1803262;77;22637;-47
2022/07/30 10:55:29;;;;;;;5.50;3.08;;;;;;;30.06;39.56;100727.45;1774374;78;21034;-47
2022/07/30 10:58:00;;;;;;;6.85;2.83;;;;;;;30.05;39.81;100725.83;1763239;80;22167;-48
2022/07/30 11:00:28;;;;;;;6.45;3.15;;;;;;;30.00;39.85;100717.87;1769084;78;21014;-48
2022/07/30 11:03:25;;;;;;;6.50;3.30;;;;;;;29.99;40.24;100718.95;1765244;80;22249;-49
2022/07/30 11:06:17;;;;;;;6.15;2.80;;;;;;;30.03;40.92;100712.50;1773061;79;21041;-49
2022/07/30 11:08:44;;;;;;;5.15;2.58;;;;;;;30.09;40.40;100710.14;1701005;83;21086;-48
2022/07/30 11:11:29;;;;;;;5.47;3.08;;;;;;;30.16;39.87;100700.48;1751390;80;21234;-49
2022/07/30 11:13:59;;;;;;;6.58;3.05;;;;;;;30.25;40.45;100706.36;1770656;78;20943;-47
2022/07/30 11:16:36;;;;;;;4.50;2.95;;;;;;;30.38;39.52;100702.80;1772950;78;20931;-48
2022/07/30 11:19:23;;;;;;;6.05;3.17;;;;;;;30.50;39.22;100698.64;1777098;80;21038;-49
2022/07/30 11:21:41;;;;;;;6.67;3.08;;;;;;;30.65;38.77;100691.78;1779766;78;22339;-48
2022/07/30 11:24:42;;;;;;;5.33;2.77;;;;;;;30.68;37.38;100694.00;1769006;78;22158;-48
2022/07/30 11:27:09;;;;;;;6.65;3.42;;;;;;;30.63;37.34;100693.42;1764242;80;21069;-49
2022/07/30 11:29:39;;;;;;;7.28;3.58;;;;;;;30.54;37.69;100697.06;1769066;78;21050;-49
2022/07/30 11:32:31;;;;;;;5.72;3.10;;;;;;;30.48;37.49;100698.59;1768690;78;21051;-49
2022/07/30 11:35:25;;;;;;;6.87;3.35;;;;;;;30.38;37.94;100693.84;1766667;78;21715;-48
2022/07/30 11:38:18;;;;;;;5.35;2.85;;;;;;;30.25;38.15;100694.14;1760546;79;21054;-47
2022/07/30 11:40:56;;;;;;;6.25;2.92;;;;;;;30.15;38.44;100686.11;1777179;78;21553;-48
2022/07/30 11:43:31;;;;;;;7.47;2.87;;;;;;;30.08;38.61;100684.09;1776605;80;21060;-48
2022/07/30 11:46:10;;;;;;;5.35;3.00;;;;;;;30.04;38.82;100684.28;1767441;79;21090;-48